createdAt,value
2023-05-24T00:00:43.013Z,100651.59
2023-05-24T00:05:46.886Z,100644.53
2023-05-24T00:10:48.659Z,100637.44
2023-05-24T00:15:50.557Z,100637.06
2023-05-24T00:20:53.415Z,100645.06
2023-05-24T00:25:55.076Z,100638.00
2023-05-24T00:30:57.647Z,100636.63
2023-05-24T00:35:59.312Z,100627.91
2023-05-24T00:41:01.464Z,100635.78
2023-05-24T00:46:09.262Z,100640.78
2023-05-24T00:51:12.137Z,100633.88
2023-05-24T00:56:15.521Z,100631.47
2023-05-24T01:01:17.262Z,100616.91
2023-05-24T01:06:19.808Z,100629.53
2023-05-24T01:11:51.673Z,100622.66
2023-05-24T01:17:13.458Z,100626.78
2023-05-24T01:22:33.733Z,100631.75
2023-05-24T01:27:38.414Z,100635.94
2023-05-24T01:32:40.796Z,100626.63
2023-05-24T01:37:42.421Z,100632.56
2023-05-24T01:42:56.585Z,100640.59
2023-05-24T01:48:26.094Z,100650.63
2023-05-24T01:53:34.246Z,100656.97
2023-05-24T01:58:37.645Z,100654.38
2023-05-24T02:03:39.919Z,100657.13
2023-05-24T02:08:41.588Z,100659.88
2023-05-24T02:13:43.199Z,100669.16
2023-05-24T02:18:46.784Z,100670.41
2023-05-24T02:23:48.794Z,100673.28
2023-05-24T02:28:50.869Z,100671.38
2023-05-24T02:33:52.466Z,100667.19
2023-05-24T02:38:54.465Z,100667.41
2023-05-24T02:43:56.083Z,100666.41
2023-05-24T02:48:57.751Z,100663.53
2023-05-24T02:53:59.486Z,100670.38
2023-05-24T02:59:01.068Z,100671.28
2023-05-24T03:04:04.917Z,100668.38
2023-05-24T03:09:06.917Z,100664.25
2023-05-24T03:14:10.992Z,100671.56
2023-05-24T03:19:17.333Z,100654.94
2023-05-24T03:24:19.360Z,100642.56
2023-05-24T03:29:21.598Z,100669.38
2023-05-24T03:34:23.841Z,100649.56
2023-05-24T03:39:25.484Z,100653.81
2023-05-24T03:44:37.820Z,100649.84
2023-05-24T03:49:41.271Z,100650.06
2023-05-24T03:54:42.879Z,100654.09
2023-05-24T03:59:45.754Z,100649.31
2023-05-24T04:04:47.455Z,100667.63
2023-05-24T04:09:49.126Z,100668.91
2023-05-24T04:14:51.869Z,100674.19
2023-05-24T04:19:53.796Z,100672.88
2023-05-24T04:24:55.615Z,100678.16
2023-05-24T04:29:57.342Z,100670.97
2023-05-24T04:34:58.984Z,100677.94
2023-05-24T04:40:00.625Z,100680.91
2023-05-24T04:45:02.396Z,100683.19
2023-05-24T04:50:04.749Z,100684.88
2023-05-24T04:55:06.798Z,100675.81
2023-05-24T05:00:10.209Z,100684.03
2023-05-24T05:05:12.686Z,100688.69
2023-05-24T05:10:14.446Z,100693.69
2023-05-24T05:15:16.070Z,100695.41
2023-05-24T05:20:17.878Z,100697.06
2023-05-24T05:25:19.688Z,100702.13
2023-05-24T05:30:21.347Z,100694.50
2023-05-24T05:35:22.940Z,100692.16
2023-05-24T05:40:24.679Z,100687.66
2023-05-24T05:45:26.503Z,100682.56
2023-05-24T05:50:28.072Z,100685.28
2023-05-24T05:55:29.678Z,100683.69
2023-05-24T06:00:31.595Z,100688.03
2023-05-24T06:05:33.401Z,100682.78
2023-05-24T06:10:35.050Z,100673.75
2023-05-24T06:15:37.708Z,100684.56
2023-05-24T06:20:39.448Z,100688.84
2023-05-24T06:25:43.982Z,100689.41
2023-05-24T06:30:47.579Z,100700.88
2023-05-24T06:35:49.569Z,100696.06
2023-05-24T06:40:51.325Z,100702.22
2023-05-24T06:45:56.504Z,100713.50
2023-05-24T06:50:58.496Z,100712.78
2023-05-24T06:56:00.120Z,100720.09
2023-05-24T07:01:02.586Z,100725.50
2023-05-24T07:06:04.250Z,100714.38
2023-05-24T07:11:06.316Z,100732.44
2023-05-24T07:16:08.412Z,100736.66
2023-05-24T07:21:10.047Z,100734.91
2023-05-24T07:26:12.798Z,100741.09
2023-05-24T07:31:14.624Z,100745.91
2023-05-24T07:36:16.215Z,100740.91
2023-05-24T07:41:18.099Z,100756.81
2023-05-24T07:46:19.748Z,100756.13
2023-05-24T07:51:21.570Z,100743.44
2023-05-24T07:56:23.806Z,100753.50
2023-05-24T08:01:25.397Z,100748.97
2023-05-24T08:06:27.609Z,100748.25
2023-05-24T08:11:29.251Z,100735.25
2023-05-24T08:16:31.753Z,100746.00
2023-05-24T08:21:36.522Z,100751.81
2023-05-24T08:26:38.367Z,100760.69
2023-05-24T08:31:39.994Z,100761.78
2023-05-24T08:36:43.853Z,100758.31
2023-05-24T08:41:57.382Z,100754.09
2023-05-24T08:47:09.580Z,100760.72
2023-05-24T08:52:12.791Z,100766.84
2023-05-24T08:57:17.781Z,100759.06
2023-05-24T09:02:19.788Z,100751.84
2023-05-24T09:07:25.503Z,100754.06
2023-05-24T09:12:37.237Z,100727.66
2023-05-24T09:17:40.841Z,100736.75
2023-05-24T09:22:43.499Z,100717.38
2023-05-24T09:27:50.565Z,100725.72
2023-05-24T09:32:57.476Z,100730.06
2023-05-24T09:38:00.178Z,100740.69
2023-05-24T09:43:10.347Z,100743.63
2023-05-24T09:48:20.325Z,100753.91
2023-05-24T09:53:22.432Z,100754.06
2023-05-24T09:58:30.184Z,100754.78
2023-05-24T10:03:32.336Z,100746.47
2023-05-24T10:08:35.514Z,100749.75
2023-05-24T10:13:37.633Z,100743.09
2023-05-24T10:18:39.947Z,100742.34
2023-05-24T10:23:44.591Z,100747.38
2023-05-24T10:28:52.589Z,100730.88
2023-05-24T10:34:04.386Z,100722.06
2023-05-24T10:39:12.199Z,100715.25
2023-05-24T10:44:20.451Z,100689.81
2023-05-24T10:49:22.762Z,100682.06
2023-05-24T10:54:27.448Z,100676.06
2023-05-24T10:59:31.600Z,100668.34
2023-05-24T11:04:39.631Z,100650.63
2023-05-24T11:09:47.513Z,100674.50
2023-05-24T11:14:53.266Z,100648.84
2023-05-24T11:19:56.728Z,100642.59
2023-05-24T11:25:03.371Z,100638.91
2023-05-24T11:30:07.532Z,100647.06
2023-05-24T11:35:11.753Z,100620.00
2023-05-24T11:40:15.134Z,100630.69
2023-05-24T11:45:18.762Z,100647.44
2023-05-24T11:50:25.303Z,100641.03
2023-05-24T11:55:28.495Z,100633.41
2023-05-24T12:00:30.731Z,100634.06
2023-05-24T12:05:32.482Z,100638.41
2023-05-24T12:10:37.877Z,100627.34
2023-05-24T12:15:39.644Z,100624.06
2023-05-24T12:20:42.352Z,100622.91
2023-05-24T12:25:44.386Z,100617.28
2023-05-24T12:30:46.664Z,100633.81
2023-05-24T12:35:48.734Z,100621.72
2023-05-24T12:41:03.906Z,100633.03
2023-05-24T12:46:13.213Z,100621.72
2023-05-24T12:51:14.924Z,100599.75
2023-05-24T12:56:16.770Z,100596.38
2023-05-24T13:01:18.465Z,100605.03
2023-05-24T13:06:20.381Z,100590.09
2023-05-24T13:11:23.030Z,100593.66
2023-05-24T13:16:25.787Z,100599.81
2023-05-24T13:21:27.944Z,100585.59
2023-05-24T13:26:30.935Z,100578.28
2023-05-24T13:31:32.783Z,100566.53
2023-05-24T13:36:34.882Z,100551.28
2023-05-24T13:41:37.191Z,100569.56
2023-05-24T13:46:39.453Z,100577.88
2023-05-24T13:51:41.307Z,100560.88
2023-05-24T13:56:44.736Z,100552.00
2023-05-24T14:01:48.679Z,100560.25
2023-05-24T14:06:50.319Z,100556.03
2023-05-24T14:11:52.787Z,100551.63
2023-05-24T14:16:55.374Z,100546.97
2023-05-24T14:21:57.220Z,100553.94
2023-05-24T14:26:58.824Z,100546.41
2023-05-24T14:32:00.525Z,100567.84
2023-05-24T14:37:02.883Z,100546.31
2023-05-24T14:42:04.678Z,100556.66
2023-05-24T14:47:06.374Z,100553.78
2023-05-24T14:52:07.927Z,100562.56
2023-05-24T14:57:09.498Z,100555.06
2023-05-24T15:02:11.164Z,100551.06
2023-05-24T15:07:12.851Z,100544.97
2023-05-24T15:12:14.541Z,100519.28
2023-05-24T15:17:16.462Z,100519.50
2023-05-24T15:22:18.126Z,100543.09
2023-05-24T15:27:19.718Z,100534.22
2023-05-24T15:32:21.674Z,100534.66
2023-05-24T15:37:23.257Z,100550.13
2023-05-24T15:42:25.241Z,100546.53
2023-05-24T15:47:36.098Z,100555.97
2023-05-24T15:52:37.906Z,100525.16
2023-05-24T15:57:39.498Z,100526.75
2023-05-24T16:02:41.317Z,100527.53
2023-05-24T16:07:42.987Z,100541.72
2023-05-24T16:12:44.561Z,100561.38
2023-05-24T16:17:46.386Z,100531.13
2023-05-24T16:22:51.382Z,100537.50
2023-05-24T16:27:53.013Z,100554.19
2023-05-24T16:32:54.650Z,100537.06
2023-05-24T16:37:56.323Z,100536.59
2023-05-24T16:43:00.410Z,100537.06
2023-05-24T16:48:02.248Z,100527.53
2023-05-24T16:53:05.337Z,100526.56
2023-05-24T16:58:08.166Z,100557.16
2023-05-24T17:03:10.335Z,100554.31
2023-05-24T17:08:12.135Z,100554.50
2023-05-24T17:13:13.752Z,100547.47
2023-05-24T17:18:15.327Z,100561.44
2023-05-24T17:23:17.505Z,100562.72
2023-05-24T17:28:20.206Z,100559.75
2023-05-24T17:33:26.026Z,100564.84
2023-05-24T17:38:28.637Z,100555.41
2023-05-24T17:43:32.462Z,100559.41
2023-05-24T17:48:41.906Z,100573.81
2023-05-24T17:53:43.577Z,100588.44
2023-05-24T17:58:47.433Z,100598.53
2023-05-24T18:03:49.407Z,100614.22
2023-05-24T18:08:51.102Z,100630.88
2023-05-24T18:13:52.938Z,100648.22
2023-05-24T18:18:54.878Z,100653.00
2023-05-24T18:23:56.473Z,100654.50
2023-05-24T18:28:58.071Z,100645.75
2023-05-24T18:34:01.775Z,100647.13
2023-05-24T18:39:04.193Z,100652.78
2023-05-24T18:44:05.744Z,100643.06
2023-05-24T18:49:10.958Z,100656.13
2023-05-24T18:54:13.764Z,100647.97
2023-05-24T18:59:16.820Z,100656.00
2023-05-24T19:04:18.449Z,100659.34
2023-05-24T19:09:20.016Z,100657.91
2023-05-24T19:14:22.140Z,100665.41
2023-05-24T19:19:23.736Z,100674.19
2023-05-24T19:24:26.026Z,100675.03
2023-05-24T19:29:27.956Z,100685.00
2023-05-24T19:34:32.981Z,100689.63
2023-05-24T19:39:35.593Z,100689.28
2023-05-24T19:44:37.611Z,100704.69
2023-05-24T19:49:39.202Z,100706.22
2023-05-24T19:54:41.373Z,100705.78
2023-05-24T19:59:43.046Z,100704.69
2023-05-24T20:04:44.694Z,100718.34
2023-05-24T20:09:46.350Z,100710.25
2023-05-24T20:14:47.973Z,100710.41
2023-05-24T20:19:49.684Z,100705.22
2023-05-24T20:24:51.304Z,100711.22
2023-05-24T20:29:52.904Z,100717.03
2023-05-24T20:34:54.443Z,100717.31
2023-05-24T20:39:56.329Z,100703.50
2023-05-24T20:44:58.224Z,100704.88
2023-05-24T20:49:59.824Z,100715.91
2023-05-24T20:55:01.676Z,100713.56
2023-05-24T21:00:04.691Z,100710.59
2023-05-24T21:05:07.950Z,100718.44
2023-05-24T21:10:14.800Z,100719.75
2023-05-24T21:15:16.578Z,100709.91
2023-05-24T21:20:19.265Z,100716.75
2023-05-24T21:25:21.008Z,100714.06
2023-05-24T21:30:22.692Z,100722.53
2023-05-24T21:35:24.307Z,100720.88
2023-05-24T21:40:25.941Z,100722.63
2023-05-24T21:45:27.584Z,100731.72
2023-05-24T21:50:29.393Z,100726.28
2023-05-24T21:55:31.023Z,100736.19
2023-05-24T22:00:33.105Z,100734.72
2023-05-24T22:05:34.666Z,100733.69
2023-05-24T22:10:36.368Z,100751.59
2023-05-24T22:15:37.915Z,100747.16
2023-05-24T22:20:39.544Z,100736.91
2023-05-24T22:25:41.810Z,100748.88
2023-05-24T22:30:43.486Z,100752.00
2023-05-24T22:35:45.174Z,100758.72
2023-05-24T22:40:47.053Z,100768.22
2023-05-24T22:45:48.629Z,100755.16
2023-05-24T22:50:50.220Z,100755.94
2023-05-24T22:55:51.940Z,100757.34
2023-05-24T23:00:53.494Z,100758.31
2023-05-24T23:05:55.629Z,100760.94
2023-05-24T23:10:58.213Z,100759.44
2023-05-24T23:16:00.093Z,100760.41
2023-05-24T23:21:02.929Z,100760.50
2023-05-24T23:26:04.535Z,100760.09
2023-05-24T23:31:06.314Z,100756.28
2023-05-24T23:36:09.832Z,100761.53
2023-05-24T23:41:11.611Z,100756.72
2023-05-24T23:46:13.196Z,100760.44
2023-05-24T23:51:14.877Z,100745.47
2023-05-24T23:56:16.573Z,100758.22
